Hafford, Canada
Current Conditions -  °F | °C
As of 5:54 AM on Thursday 27 Nov 2014 (Local Time) from CYQW Reporting Station
Overcast Overcast  
Wind Chill: -8°   Ceiling: 2300
Heat Index:   Visibility: 9mi
Dew Point:   Wind: 8mph
Humidity: 92%   Direction: 110°ESE
Pressure: 30.11"   Gusts: NA
Location:  52.72°N, 107.35°W
Report Text: CYQW 271154Z AUTO 11007KT 9SM BKN023 OVC080 M15/M16 A3011 RMK SLP244
Loading
Personal Weather Stations






























Interactive Weather Map New forecast layout! Learn more

10-Day Weather Forecast

Advertisements
Track Severe Weather on mobile